This is the latest recevied weather packets stored in our database for station/object N8SHA. If no packets are shown the sender has not sent any weather packets the latest 10 day(s).
| Time | Temp. | Humidity | Pressure | Rain* | Wind** | Luminosity | Snow |
|---|---|---|---|---|---|---|---|
| 1777825653 | 13.89° C | 47% | 1011.9 hPa | 0 mm | - | 416 W/m² | - |
| 1777825352 | 13.89° C | 46% | 1011.4 hPa | 0 mm | - | 329 W/m² | - |
| 1777825048 | 13.89° C | 46% | 1011.8 hPa | 0 mm | - | 431 W/m² | - |
| 1777824744 | 13.89° C | 46% | 1011.9 hPa | 0 mm | - | 473 W/m² | - |
| 1777824441 | 13.33° C | 46% | 1012 hPa | 0 mm | - | 516 W/m² | - |
| 1777824137 | 13.33° C | 46% | 1012 hPa | 0 mm | - | 399 W/m² | - |
| 1777823833 | 12.78° C | 47% | 1012.3 hPa | 0 mm | - | 450 W/m² | - |
| 1777823531 | 12.78° C | 46% | 1012.2 hPa | 0 mm | - | 300 W/m² | - |
| 1777823228 | 12.78° C | 48% | 1012.3 hPa | 0 mm | - | 378 W/m² | - |
| 1777822926 | 12.78° C | 48% | 1012.4 hPa | 0 mm | - | 339 W/m² | - |
| 1777822623 | 12.78° C | 46% | 1012.3 hPa | 0 mm | - | 345 W/m² | - |
| 1777822321 | 12.78° C | 50% | 1012.7 hPa | 0 mm | - | 645 W/m² | - |
| 1777822018 | 11.67° C | 48% | 1012.6 hPa | 0 mm | - | 384 W/m² | - |
| 1777821716 | 11.11° C | 50% | 1012.7 hPa | 0 mm | - | 223 W/m² | - |
| 1777821413 | 11.67° C | 50% | 1012.7 hPa | 0 mm | - | 142 W/m² | - |
| 1777821110 | 11.67° C | 50% | 1012.7 hPa | 0 mm | - | 149 W/m² | - |
| 1777820807 | 11.67° C | 50% | 1012.7 hPa | 0 mm | - | 106 W/m² | - |
| 1777820503 | 11.67° C | 50% | 1012.8 hPa | 0 mm | - | 100 W/m² | - |
| 1777820200 | 11.67° C | 50% | 1012.5 hPa | 0 mm | - | 80 W/m² | - |
| 1777819897 | 11.67° C | 49% | 1012.7 hPa | 0 mm | - | 69 W/m² | - |
| 1777819595 | 11.67° C | 49% | 1012.5 hPa | 0 mm | - | 64 W/m² | - |
| 1777819293 | 11.67° C | 48% | 1012.4 hPa | 0 mm | - | 78 W/m² | - |
| 1777818989 | 12.22° C | 49% | 1012.4 hPa | 0 mm | - | 107 W/m² | - |
| 1777818686 | 12.78° C | 46% | 1012.6 hPa | 0 mm | - | 186 W/m² | - |
| 1777818382 | 12.78° C | 49% | 1012.5 hPa | 0 mm | - | 281 W/m² | - |
* Rain latest hour (hover to see other rain measurements)
** Current wind speed in m/s (hover to see current wind gust speed)